createdAt,value
2022-08-05T00:01:27.887Z,4.70
2022-08-05T00:04:32.233Z,3.95
2022-08-05T00:08:00.960Z,4.15
2022-08-05T00:11:02.330Z,4.00
2022-08-05T00:14:12.645Z,4.78
2022-08-05T00:17:20.937Z,4.35
2022-08-05T00:20:29.034Z,5.78
2022-08-05T00:23:46.085Z,5.38
2022-08-05T00:26:52.150Z,4.75
2022-08-05T00:29:57.473Z,4.13
2022-08-05T00:33:05.392Z,3.70
2022-08-05T00:37:10.519Z,4.28
2022-08-05T00:39:57.205Z,4.13
2022-08-05T00:43:07.480Z,4.57
2022-08-05T00:46:11.407Z,4.45
2022-08-05T00:49:19.678Z,4.55
2022-08-05T00:52:28.298Z,4.78
2022-08-05T00:55:42.184Z,4.20
2022-08-05T00:58:47.034Z,3.90
2022-08-05T01:01:52.023Z,3.83
2022-08-05T01:04:56.874Z,3.60
2022-08-05T01:08:40.291Z,4.20
2022-08-05T01:11:33.516Z,3.55
2022-08-05T01:18:01.309Z,3.60
2022-08-05T01:21:43.333Z,3.88
2022-08-05T01:25:13.587Z,3.80
2022-08-05T01:28:32.263Z,4.75
2022-08-05T01:31:56.023Z,3.55
2022-08-05T01:35:03.446Z,3.97
2022-08-05T01:38:26.855Z,3.78
2022-08-05T01:41:35.288Z,3.70
2022-08-05T01:44:41.026Z,4.13
2022-08-05T01:47:47.837Z,4.35
2022-08-05T01:50:53.156Z,3.95
2022-08-05T01:53:59.076Z,3.85
2022-08-05T01:58:29.705Z,3.97
2022-08-05T02:00:34.307Z,4.28
2022-08-05T02:03:41.726Z,3.90
2022-08-05T02:06:46.523Z,4.55
2022-08-05T02:09:52.706Z,4.15
2022-08-05T02:13:02.277Z,4.32
2022-08-05T02:16:29.348Z,4.03
2022-08-05T02:19:47.061Z,4.38
2022-08-05T02:22:59.823Z,4.20
2022-08-05T02:26:07.044Z,4.18
2022-08-05T02:29:21.643Z,4.20
2022-08-05T02:32:31.844Z,3.90
2022-08-05T02:35:50.904Z,4.05
2022-08-05T02:39:04.407Z,4.30
2022-08-05T02:42:26.147Z,4.05
2022-08-05T02:45:52.316Z,4.25
2022-08-05T02:48:58.885Z,4.05
2022-08-05T02:52:04.836Z,4.60
2022-08-05T02:55:10.925Z,4.20
2022-08-05T02:58:17.551Z,4.88
2022-08-05T03:01:29.031Z,3.75
2022-08-05T03:04:33.432Z,4.30
2022-08-05T03:07:56.569Z,4.72
2022-08-05T03:11:53.539Z,4.38
2022-08-05T03:14:26.248Z,4.60
2022-08-05T03:17:29.606Z,4.22
2022-08-05T03:20:33.728Z,4.35
2022-08-05T03:23:41.640Z,4.93
2022-08-05T03:26:49.744Z,4.38
2022-08-05T03:30:07.364Z,4.78
2022-08-05T03:33:13.150Z,4.70
2022-08-05T03:36:17.423Z,4.95
2022-08-05T03:39:47.135Z,5.30
2022-08-05T03:42:58.166Z,5.05
2022-08-05T03:46:03.170Z,5.40
2022-08-05T03:49:07.215Z,4.93
2022-08-05T03:52:36.506Z,5.78
2022-08-05T03:56:11.851Z,5.70
2022-08-05T03:59:29.182Z,4.97
2022-08-05T04:02:58.612Z,5.20
2022-08-05T04:06:04.608Z,4.97
2022-08-05T04:09:13.025Z,4.82
2022-08-05T04:12:23.695Z,4.93
2022-08-05T04:15:32.983Z,4.72
2022-08-05T04:18:39.119Z,4.28
2022-08-05T04:22:08.391Z,4.90
2022-08-05T04:25:07.962Z,5.13
2022-08-05T04:28:14.533Z,5.25
2022-08-05T04:31:18.923Z,5.38
2022-08-05T04:34:32.420Z,5.03
2022-08-05T04:38:01.015Z,5.00
2022-08-05T04:41:01.058Z,6.07
2022-08-05T04:44:08.943Z,5.72
2022-08-05T04:47:18.382Z,4.82
2022-08-05T04:50:37.223Z,4.85
2022-08-05T04:53:41.389Z,4.55
2022-08-05T04:56:46.101Z,4.20
2022-08-05T04:59:49.460Z,4.30
2022-08-05T05:02:53.803Z,5.35
2022-08-05T05:06:39.273Z,5.63
2022-08-05T05:09:21.231Z,5.30
2022-08-05T05:12:27.405Z,4.88
2022-08-05T05:15:57.927Z,4.22
2022-08-05T05:19:17.584Z,4.90
2022-08-05T05:22:24.687Z,4.88
2022-08-05T05:25:32.697Z,4.55
2022-08-05T05:28:42.667Z,4.28
2022-08-05T05:31:48.458Z,4.88
2022-08-05T05:34:54.925Z,4.53
2022-08-05T05:38:03.705Z,5.13
2022-08-05T05:41:10.000Z,5.13
2022-08-05T05:48:07.141Z,4.88
2022-08-05T05:51:14.791Z,4.80
2022-08-05T05:54:19.863Z,5.45
2022-08-05T05:57:23.183Z,5.45
2022-08-05T06:00:31.767Z,5.47
2022-08-05T06:03:53.788Z,5.53
2022-08-05T06:07:01.941Z,4.53
2022-08-05T06:10:10.453Z,4.63
2022-08-05T06:13:14.850Z,5.45
2022-08-05T06:16:30.805Z,4.75
2022-08-05T06:19:35.855Z,5.00
2022-08-05T06:22:40.469Z,4.38
2022-08-05T06:26:12.789Z,4.60
2022-08-05T06:29:43.048Z,5.28
2022-08-05T06:32:31.790Z,4.28
2022-08-05T06:36:05.767Z,5.35
2022-08-05T06:38:59.760Z,3.42
2022-08-05T06:42:04.095Z,3.60
2022-08-05T06:45:09.516Z,4.38
2022-08-05T06:48:53.814Z,4.30
2022-08-05T06:51:40.879Z,3.78
2022-08-05T06:54:44.639Z,3.75
2022-08-05T06:58:02.583Z,3.47
2022-08-05T07:01:14.747Z,3.10
2022-08-05T07:04:25.620Z,3.35
2022-08-05T07:07:35.421Z,3.42
2022-08-05T07:10:53.509Z,3.40
2022-08-05T07:14:29.048Z,3.22
2022-08-05T07:18:01.163Z,3.50
2022-08-05T07:20:57.619Z,3.13
2022-08-05T07:24:01.829Z,3.40
2022-08-05T07:27:08.788Z,3.07
2022-08-05T07:30:27.780Z,3.60
2022-08-05T07:33:36.802Z,3.78
2022-08-05T07:36:40.790Z,3.90
2022-08-05T07:40:26.588Z,3.10
2022-08-05T07:43:14.573Z,3.13
2022-08-05T07:46:29.197Z,3.50
2022-08-05T07:49:33.775Z,3.38
2022-08-05T07:52:47.610Z,3.50
2022-08-05T07:56:06.368Z,3.33
2022-08-05T07:59:15.246Z,3.38
2022-08-05T08:02:18.878Z,3.25
2022-08-05T08:05:22.690Z,3.53
2022-08-05T08:08:30.302Z,3.38
2022-08-05T08:11:47.595Z,3.58
2022-08-05T08:14:57.610Z,5.45
2022-08-05T08:18:13.694Z,3.70
2022-08-05T08:21:18.028Z,3.80
2022-08-05T08:24:21.610Z,4.10
2022-08-05T08:27:47.746Z,3.90
2022-08-05T08:30:55.340Z,5.18
2022-08-05T08:33:58.995Z,3.38
2022-08-05T08:37:05.036Z,3.10
2022-08-05T08:40:09.442Z,3.75
2022-08-05T08:45:19.456Z,2.95
2022-08-05T08:50:23.197Z,3.47
2022-08-05T08:53:17.230Z,3.80
2022-08-05T08:56:22.286Z,3.65
2022-08-05T08:59:27.553Z,3.22
2022-08-05T09:02:37.770Z,3.40
2022-08-05T09:06:08.867Z,3.75
2022-08-05T09:09:07.284Z,3.28
2022-08-05T09:12:20.475Z,3.10
2022-08-05T09:15:25.197Z,3.20
2022-08-05T09:18:29.601Z,2.45
2022-08-05T09:22:21.852Z,2.28
2022-08-05T09:25:02.135Z,2.83
2022-08-05T09:28:24.320Z,2.28
2022-08-05T09:32:39.883Z,3.03
2022-08-05T09:35:00.980Z,2.95
2022-08-05T09:38:18.416Z,3.30
2022-08-05T09:41:33.166Z,2.60
2022-08-05T09:44:52.865Z,2.55
2022-08-05T09:48:00.501Z,2.42
2022-08-05T09:51:15.025Z,2.47
2022-08-05T09:54:32.558Z,2.95
2022-08-05T09:57:40.845Z,3.33
2022-08-05T10:00:54.967Z,3.00
2022-08-05T10:04:12.988Z,2.15
2022-08-05T10:07:20.716Z,2.90
2022-08-05T10:10:53.868Z,2.70
2022-08-05T10:13:58.759Z,3.78
2022-08-05T10:17:38.029Z,3.28
2022-08-05T10:20:49.215Z,3.72
2022-08-05T10:24:00.303Z,3.42
2022-08-05T10:27:05.553Z,3.92
2022-08-05T10:31:20.214Z,4.32
2022-08-05T10:33:37.141Z,3.47
2022-08-05T10:36:43.611Z,4.00
2022-08-05T10:39:59.170Z,3.72
2022-08-05T10:43:30.847Z,4.80
2022-08-05T10:46:54.000Z,4.47
2022-08-05T10:50:28.062Z,3.78
2022-08-05T10:53:54.897Z,3.70
2022-08-05T10:56:59.077Z,3.17
2022-08-05T11:00:18.542Z,3.00
2022-08-05T11:03:26.975Z,3.17
2022-08-05T11:06:31.373Z,3.15
2022-08-05T11:09:47.164Z,3.15
2022-08-05T11:16:22.452Z,3.13
2022-08-05T11:20:11.436Z,3.58
2022-08-05T11:24:04.182Z,3.63
2022-08-05T11:27:45.763Z,3.92
2022-08-05T11:30:58.839Z,3.65
2022-08-05T11:34:09.676Z,4.90
2022-08-05T11:38:30.245Z,4.40
2022-08-05T11:41:35.578Z,4.20
2022-08-05T11:44:53.262Z,4.55
2022-08-05T11:47:58.726Z,4.13
2022-08-05T11:51:03.108Z,5.30
2022-08-05T11:54:07.326Z,5.35
2022-08-05T11:57:39.428Z,3.75
2022-08-05T12:00:38.125Z,5.03
2022-08-05T12:07:02.977Z,3.63
2022-08-05T12:13:27.648Z,4.25
2022-08-05T12:16:45.270Z,3.17
2022-08-05T12:20:25.654Z,3.83
2022-08-05T12:23:19.400Z,4.50
2022-08-05T12:26:23.956Z,4.55
2022-08-05T12:29:38.675Z,4.22
2022-08-05T12:32:50.379Z,4.30
2022-08-05T12:35:56.478Z,3.65
2022-08-05T12:39:00.898Z,4.13
2022-08-05T12:42:09.378Z,3.58
2022-08-05T12:45:19.206Z,3.72
2022-08-05T12:48:27.357Z,3.80
2022-08-05T12:52:12.864Z,3.60
2022-08-05T12:55:22.430Z,3.97
2022-08-05T12:58:49.099Z,3.33
2022-08-05T13:02:10.084Z,3.50
2022-08-05T13:05:16.379Z,4.57
2022-08-05T13:08:20.213Z,3.58
2022-08-05T13:12:01.191Z,4.30
2022-08-05T13:15:05.481Z,3.60
2022-08-05T13:18:11.097Z,2.92
2022-08-05T13:21:23.210Z,3.10
2022-08-05T13:24:51.188Z,3.60
2022-08-05T13:28:00.134Z,4.60
2022-08-05T13:31:13.911Z,2.55
2022-08-05T13:34:24.606Z,2.78
2022-08-05T13:37:34.549Z,3.25
2022-08-05T13:40:49.935Z,3.90
2022-08-05T13:43:55.733Z,6.90
2022-08-05T13:47:01.909Z,2.83
2022-08-05T13:50:11.428Z,2.67
2022-08-05T13:53:19.022Z,3.65
2022-08-05T13:56:22.407Z,3.80
2022-08-05T13:59:27.653Z,4.13
2022-08-05T14:02:34.571Z,3.10
2022-08-05T14:06:04.619Z,3.72
2022-08-05T14:09:02.999Z,3.42
2022-08-05T14:12:17.271Z,3.58
2022-08-05T14:16:07.886Z,3.55
2022-08-05T14:18:45.556Z,4.03
2022-08-05T14:22:10.245Z,3.63
2022-08-05T14:25:21.770Z,3.92
2022-08-05T14:28:27.314Z,4.47
2022-08-05T14:32:02.410Z,3.67
2022-08-05T14:34:57.669Z,3.92
2022-08-05T14:38:01.856Z,3.95
2022-08-05T14:41:07.451Z,4.55
2022-08-05T14:44:19.952Z,4.25
2022-08-05T14:48:02.495Z,4.63
2022-08-05T14:50:48.752Z,4.97
2022-08-05T14:54:26.338Z,6.47
2022-08-05T14:57:18.152Z,3.63
2022-08-05T15:00:22.136Z,5.05
2022-08-05T15:03:39.057Z,5.10
2022-08-05T15:06:49.481Z,4.10
2022-08-05T15:09:54.546Z,4.05
2022-08-05T15:13:03.290Z,4.55
2022-08-05T15:16:07.983Z,4.25
2022-08-05T15:19:23.388Z,4.47
2022-08-05T15:22:28.925Z,4.75
2022-08-05T15:25:51.363Z,3.47
2022-08-05T15:28:56.708Z,4.18
2022-08-05T15:32:02.267Z,4.82
2022-08-05T15:35:10.697Z,3.72
2022-08-05T15:38:36.037Z,5.03
2022-08-05T15:41:58.584Z,3.10
2022-08-05T15:45:03.036Z,2.60
2022-08-05T15:48:14.269Z,2.92
2022-08-05T15:51:27.939Z,3.22
2022-08-05T15:54:47.056Z,2.50
2022-08-05T15:57:53.464Z,2.30
2022-08-05T16:01:12.003Z,2.15
2022-08-05T16:04:20.541Z,2.50
2022-08-05T16:07:29.774Z,3.38
2022-08-05T16:10:33.463Z,3.38
2022-08-05T16:13:38.016Z,3.58
2022-08-05T16:16:41.313Z,3.35
2022-08-05T16:20:05.629Z,2.70
2022-08-05T16:23:09.291Z,2.17
2022-08-05T16:26:13.539Z,3.63
2022-08-05T16:29:17.198Z,2.80
2022-08-05T16:32:29.327Z,2.63
2022-08-05T16:35:41.915Z,3.20
2022-08-05T16:38:55.162Z,2.65
2022-08-05T16:42:15.055Z,2.83
2022-08-05T16:46:06.939Z,2.70
2022-08-05T16:48:44.311Z,3.28
2022-08-05T16:51:51.365Z,3.25
2022-08-05T16:54:58.564Z,3.30
2022-08-05T16:58:03.469Z,3.25
2022-08-05T17:01:12.133Z,3.38
2022-08-05T17:04:16.374Z,3.08
2022-08-05T17:07:39.272Z,3.20
2022-08-05T17:10:46.134Z,3.60
2022-08-05T17:13:49.817Z,3.17
2022-08-05T17:16:54.536Z,3.53
2022-08-05T17:19:58.568Z,2.83
2022-08-05T17:23:02.508Z,2.97
2022-08-05T17:26:05.967Z,3.17
2022-08-05T17:29:10.387Z,3.17
2022-08-05T17:32:26.340Z,2.83
2022-08-05T17:35:32.460Z,4.00
2022-08-05T17:38:53.870Z,5.28
2022-08-05T17:42:18.831Z,3.40
2022-08-05T17:45:38.099Z,3.30
2022-08-05T17:48:44.839Z,3.30
2022-08-05T17:51:50.942Z,3.10
2022-08-05T17:54:55.035Z,2.67
2022-08-05T17:58:01.011Z,2.92
2022-08-05T18:01:09.614Z,3.15
2022-08-05T18:04:13.466Z,3.05
2022-08-05T18:07:25.447Z,2.63
2022-08-05T18:10:36.885Z,2.88
2022-08-05T18:13:44.395Z,2.60
2022-08-05T18:16:51.933Z,3.03
2022-08-05T18:19:56.287Z,2.72
2022-08-05T18:23:11.502Z,3.00
2022-08-05T18:26:18.748Z,2.78
2022-08-05T18:29:40.265Z,2.97
2022-08-05T18:32:53.342Z,2.88
2022-08-05T18:36:03.339Z,3.08
2022-08-05T18:39:22.267Z,3.53
2022-08-05T18:42:32.053Z,4.15
2022-08-05T18:45:41.248Z,5.10
2022-08-05T18:48:46.427Z,2.80
2022-08-05T18:52:10.980Z,3.75
2022-08-05T18:55:14.856Z,3.20
2022-08-05T18:58:26.994Z,3.53
2022-08-05T19:01:47.854Z,3.38
2022-08-05T19:05:02.396Z,3.22
2022-08-05T19:08:30.543Z,3.20
2022-08-05T19:11:56.698Z,3.10
2022-08-05T19:14:59.802Z,3.15
2022-08-05T19:21:13.551Z,3.78
2022-08-05T19:24:17.787Z,3.47
2022-08-05T19:27:38.646Z,3.40
2022-08-05T19:30:48.600Z,3.65
2022-08-05T19:33:56.284Z,3.00
2022-08-05T19:37:00.930Z,3.10
2022-08-05T19:40:10.268Z,2.95
2022-08-05T19:44:03.985Z,3.30
2022-08-05T19:46:41.112Z,2.60
2022-08-05T19:49:51.191Z,2.75
2022-08-05T19:53:09.368Z,3.10
2022-08-05T19:56:29.728Z,2.45
2022-08-05T19:59:55.786Z,3.42
2022-08-05T20:02:59.615Z,2.75
2022-08-05T20:06:15.618Z,2.63
2022-08-05T20:09:20.600Z,3.35
2022-08-05T20:12:25.245Z,2.10
2022-08-05T20:15:52.465Z,2.72
2022-08-05T20:18:55.521Z,2.70
2022-08-05T20:21:59.800Z,2.50
2022-08-05T20:25:03.340Z,4.28
2022-08-05T20:28:13.709Z,3.20
2022-08-05T20:31:21.971Z,2.97
2022-08-05T20:34:26.775Z,3.17
2022-08-05T20:38:05.417Z,3.13
2022-08-05T20:40:55.401Z,3.10
2022-08-05T20:44:05.192Z,3.40
2022-08-05T20:47:31.743Z,3.38
2022-08-05T20:50:39.694Z,3.20
2022-08-05T20:53:56.421Z,3.60
2022-08-05T20:57:00.955Z,3.80
2022-08-05T21:00:19.936Z,3.97
2022-08-05T21:03:34.571Z,3.60
2022-08-05T21:06:45.021Z,3.00
2022-08-05T21:09:53.453Z,3.33
2022-08-05T21:13:11.308Z,3.50
2022-08-05T21:16:20.922Z,3.20
2022-08-05T21:19:26.743Z,3.20
2022-08-05T21:22:32.480Z,3.53
2022-08-05T21:25:36.482Z,3.17
2022-08-05T21:28:41.067Z,3.25
2022-08-05T21:31:51.837Z,3.58
2022-08-05T21:35:08.856Z,3.80
2022-08-05T21:41:25.540Z,3.63
2022-08-05T21:44:37.788Z,2.92
2022-08-05T21:47:56.077Z,3.40
2022-08-05T21:51:01.091Z,3.95
2022-08-05T21:54:05.835Z,3.40
2022-08-05T21:57:31.326Z,3.10
2022-08-05T22:00:36.256Z,2.97
2022-08-05T22:03:48.806Z,3.10
2022-08-05T22:06:57.418Z,3.10
2022-08-05T22:10:01.113Z,3.70
2022-08-05T22:14:05.113Z,3.17
2022-08-05T22:16:41.706Z,3.20
2022-08-05T22:20:00.677Z,3.20
2022-08-05T22:24:03.171Z,3.10
2022-08-05T22:27:17.406Z,3.30
2022-08-05T22:30:21.348Z,3.13
2022-08-05T22:33:56.630Z,3.35
2022-08-05T22:36:50.765Z,3.90
2022-08-05T22:39:55.739Z,3.35
2022-08-05T22:43:00.329Z,2.47
2022-08-05T22:46:12.249Z,3.05
2022-08-05T22:50:17.839Z,3.05
2022-08-05T22:52:52.503Z,2.80
2022-08-05T22:55:59.439Z,3.97
2022-08-05T22:59:42.610Z,3.05
2022-08-05T23:02:28.982Z,3.05
2022-08-05T23:05:36.020Z,2.95
2022-08-05T23:08:39.697Z,3.55
2022-08-05T23:11:46.640Z,3.45
2022-08-05T23:14:53.817Z,3.63
2022-08-05T23:18:00.850Z,3.10
2022-08-05T23:21:06.269Z,3.05
2022-08-05T23:24:14.377Z,3.35
2022-08-05T23:27:20.003Z,3.60
2022-08-05T23:30:26.954Z,3.05
2022-08-05T23:34:03.200Z,3.60
2022-08-05T23:36:56.410Z,3.25
2022-08-05T23:40:07.749Z,3.60
2022-08-05T23:43:25.090Z,3.60
2022-08-05T23:46:39.356Z,3.45
2022-08-05T23:49:47.143Z,3.20
2022-08-05T23:52:52.575Z,3.83
2022-08-05T23:55:57.479Z,3.70
2022-08-05T23:59:03.094Z,3.50
